Okabena, Minnesota
Current Conditions -  °F | °C
As of 1:15 PM on Thursday 30 Oct 2014 (Local Time) from KOTG Reporting Station
Overcast Overcast  
Wind Chill: 12°   Ceiling: 6000
Heat Index: 12°   Visibility: 10mi
Dew Point:   Wind: 18mph
Humidity: 51%   Direction: 350°N
Pressure: 30.09"   Gusts: 24mph
Location:  43.74°N, 95.32°W
Report Text: KOTG 301815Z AUTO 35016G21KT 10SM OVC060 12/02 A3009 RMK AO1
Loading
Personal Weather Stations






























Interactive Weather Map
Tropical Storm Tracking
New forecast layout! Learn more

10-Day Weather Forecast

Advertisements
Track Severe Weather on mobile